• Join FlightAware (Why Join?)
  • Login
  • US Flag 
 
08:22PM EST


 

Airport Tracker/Info


-or-


 

Live Flight TrackerFlight Track Log ✈ SWA3497 ✈ 23-Apr-2013 ✈ KIAD - KMDW

Flight Track Log - Related Links

Times and Time Zones

All times are in EDT time to prevent confusion due to time zone crossing. See the SWA3497 flight status page for this flight to view local times or setup timezone preferences in your user account.

Time Position Orientation Groundspeed Altitude Reporting Facility
EDT Latitude Longitude Course Direction KTS MPH feet Rate Location/Type
09:48AM 38.9333 -77.5500 288° West 219 252 2,700  Level Potomac TRACON
09:50AM 38.9164 -77.6728 260° West 254 292 7,600 3,540 Climbing Washington Center
09:51AM 38.9186 -77.7742 272° West 277 319 11,200 3,120 Climbing Washington Center
09:52AM 38.9272 -77.8783 276° West 320 368 13,800 3,000 Climbing Washington Center
09:53AM 38.9392 -78.0042 277° West 340 391 17,200 3,120 Climbing Washington Center
09:54AM 38.9234 -78.1267 288° West  Level FlightAware Approximate
09:54AM 38.9533 -78.1356 278° West 361 415 20,100  Level Washington Center
09:55AM 38.9628 -78.2719 275° West 376 433 22,900 2,640 Climbing Washington Center
09:56AM 38.9678 -78.4136 273° West 395 455 25,400 2,340 Climbing Washington Center
09:57AM 38.9706 -78.5606 271° West 407 468 27,600 2,100 Climbing Washington Center
09:58AM 38.9753 -78.7103 272° West 418 481 29,700 2,220 Climbing Washington Center
09:59AM 38.9858 -78.8578 275° West 424 488 32,100 1,620 Climbing Washington Center
10:00AM 38.9983 -79.0053 276° West 424 488 33,000 1,200 Climbing Washington Center
10:01AM 39.0089 -79.1500 275° West 424 488 34,500 1,440 Climbing Washington Center
10:02AM 39.0189 -79.2972 275° West 424 488 35,900 1,320 Climbing Washington Center
10:03AM 39.0311 -79.4450 276° West 424 488 37,200 1,260 Climbing Washington Center
10:04AM 39.0400 -79.6164 274° West 424 488 38,500 1,200 Climbing Washington Center
10:05AM 39.0522 -79.7481 277° West 431 496 39,700 720 Climbing Washington Center
10:06AM 39.0617 -79.8931 275° West 426 490 40,000 60 Climbing Washington Center
10:08AM 39.0803 -80.2706 274° West 417 480 40,000  Level Indianapolis Center
10:09AM 39.0914 -80.4197 276° West 420 483 40,000  Level Indianapolis Center
10:10AM 39.0989 -80.5689 274° West 418 481 40,000  Level Indianapolis Center
10:11AM 39.1108 -80.7158 276° West 415 478 40,000  Level Indianapolis Center
10:12AM 39.1661 -80.8433 299° West 407 468 40,000  Level Indianapolis Center
10:13AM 39.2322 -80.9944 299° West 407 468 40,000  Level Indianapolis Center
10:14AM 39.2878 -81.1228 299° West 410 472 40,000  Level Indianapolis Center
10:15AM 39.3450 -81.2500 300° West 412 474 40,000  Level Indianapolis Center
10:16AM 39.4006 -81.3750 300° West 405 466 40,000  Level Indianapolis Center
10:17AM 39.4550 -81.4992 300° West 399 459 40,000  Level Indianapolis Center
10:18AM 39.5083 -81.6225 299° West 395 455 40,000  Level Indianapolis Center
10:20AM 39.5725 -81.7694 300° West 392 451 40,000  Level Indianapolis Center
10:21AM 39.6250 -81.8917 299° West 391 450 40,000  Level Indianapolis Center
10:22AM 39.6783 -82.0131 300° West 388 447 40,000  Level Indianapolis Center
10:23AM 39.7283 -82.1317 299° West 390 449 40,000  Level Indianapolis Center
10:24AM 39.7894 -82.2731 299° West 383 441 40,000  Level Indianapolis Center
10:25AM 39.8411 -82.3939 299° West 381 438 40,000  Level Indianapolis Center
10:26AM 39.8919 -82.5153 299° West 379 436 40,000  Level Indianapolis Center
10:27AM 39.9439 -82.6367 299° West 380 437 40,000  Level Indianapolis Center
10:28AM 39.9953 -82.7572 299° West 379 436 40,000  Level Indianapolis Center
10:29AM 40.0467 -82.8789 299° West 381 438 40,000  Level Indianapolis Center
10:30AM 40.1047 -83.0203 298° West 378 435 40,000  Level Indianapolis Center
10:31AM 40.1564 -83.1428 299° West 384 442 40,000  Level Indianapolis Center
10:32AM 40.2081 -83.2650 299° West 384 442 40,000  Level Indianapolis Center
10:33AM 40.2594 -83.3892 299° West 388 447 40,000 -300 Level Indianapolis Center
10:34AM 40.3103 -83.5144 298° West 390 449 39,400 -780 Descending Indianapolis Center
10:35AM 40.3611 -83.6369 299° West 384 442 38,400 -720 Descending Indianapolis Center
10:36AM 40.4161 -83.7744 298° West 363 418 38,000 -240 Descending Indianapolis Center
10:37AM 40.4633 -83.8900 298° West 359 413 38,000 -300 Level Indianapolis Center
10:38AM 40.5111 -84.0056 299° West 358 412 37,400 -840 Descending Indianapolis Center
10:39AM 40.5550 -84.1153 298° West 340 391 36,400 -960 Descending Indianapolis Center
10:40AM 40.5981 -84.2225 298° West 331 381 35,500 -1,020 Descending Indianapolis Center
10:41AM 40.6408 -84.3311 297° West 333 383 34,400 -1,080 Descending Indianapolis Center
10:42AM 40.6764 -84.4164 299° West 332 382 33,600 -1,020 Descending Chicago Center
10:43AM 40.7183 -84.5217 298° West 328 377 32,600 -1,020 Descending Chicago Center
10:44AM 40.7614 -84.6286 298° West 329 379 31,600 -1,020 Descending Chicago Center
10:45AM 40.8042 -84.7383 297° West 334 384 30,600 -960 Descending Chicago Center
10:46AM 40.8550 -84.8672 298° West 331 381 29,700 -1,020 Descending Chicago Center
10:47AM 40.8958 -84.9744 297° West 327 376 28,600 -840 Descending Chicago Center
10:48AM 40.9378 -85.0817 297° West 328 377 28,000 -300 Descending Chicago Center
10:49AM 40.9800 -85.1856 298° West 323 372 28,000  Level Chicago Center
10:50AM 41.0378 -85.2786 309° West 326 375 28,000 -840 Level Chicago Center
10:51AM 41.0992 -85.3700 312° West 330 380 26,300 -2,280 Descending Chicago Center
10:52AM 41.1619 -85.4669 311° West 342 394 23,400 -3,000 Descending Chicago Center
10:53AM 41.2281 -85.5692 311° West 360 414 20,200 -2,820 Descending Chicago Center
10:54AM 41.3100 -85.6947 311° West 371 427 17,700 -2,040 Descending Chicago Center
10:55AM 41.3658 -85.7978 306° West 346 398 16,100 -840 Descending Chicago Center
10:56AM 41.3967 -85.9100 290° West 323 372 16,100 -360 Level Chicago Center
10:57AM 41.4258 -86.0214 289° West 318 366 15,400 -900 Descending Chicago Center
10:58AM 41.4539 -86.1281 289° West 307 353 14,300 -1,020 Descending Chicago Center
10:59AM 41.4800 -86.2317 289° West 299 344 13,300 -1,200 Descending Chicago Center
11:00AM 41.5067 -86.3336 289° West 293 337 11,900 -1,500 Descending Chicago Center
11:02AM 41.5214 -86.4333 281° West 287 330 10,300 -900 Descending Chicago Center
11:03AM 41.5208 -86.5500 270° West 261 300 10,100 -120 Descending Chicago Center
11:04AM 41.5214 -86.6428 270° West 252 290 10,100  Level Chicago Center
11:05AM 41.5206 -86.7389 269° West 254 292 10,100  Level Chicago Center
11:06AM 41.5192 -86.8317 269° West 254 292 10,100 -300 Level Chicago Center
11:07AM 41.5181 -86.9244 269° West 251 289 9,500 -1,140 Descending Chicago Center
11:08AM 41.5169 -87.0153 269° West 248 285 7,800 -1,620 Descending Chicago Center
11:09AM 41.5219 -87.1156 274° West 260 299 6,200 -1,440 Descending Chicago Center
11:09AM 41.5333 -87.1500 294° West 266 306 6,000 -360 Descending Chicago TRACON
11:10AM 41.5667 -87.2500 294° West 257 296 5,800 -840 Descending Chicago TRACON
11:11AM 41.5833 -87.3333 285° West 259 298 4,400 -900 Descending Chicago TRACON
11:12AM 41.6167 -87.4167 298° West 248 285 4,000 -240 Descending Chicago TRACON
11:13AM 41.6328 -87.4800 289° West 249 287 4,000  Level Chicago Center
11:14AM 41.6547 -87.5525 292° West 231 266 4,000 -180 Level Chicago Center
11:15AM 41.6886 -87.6167 305° West 222 255 3,700 -780 Descending Chicago Center
11:16AM 41.7472 -87.6672 327° Northwest 223 257 2,500 -840 Descending Chicago Center
11:17AM 41.7833 -87.6833 342° North 151 174 2,000 -660 Descending Chicago TRACON
11:18AM 41.8167 -87.7167 323° Northwest 139 160 1,200 -780 Descending Chicago TRACON